sensor_id;sensor_type;location;lat;lon;timestamp;P1;durP1;ratioP1;P2;durP2;ratioP2
15677;SDS011;7939;50.814;6.368;2023-04-23T00:00:10;11.98;;;8.70;;
15677;SDS011;7939;50.814;6.368;2023-04-23T00:02:38;13.15;;;8.70;;
15677;SDS011;7939;50.814;6.368;2023-04-23T00:05:07;10.75;;;7.60;;
15677;SDS011;7939;50.814;6.368;2023-04-23T00:07:34;9.18;;;7.65;;
15677;SDS011;7939;50.814;6.368;2023-04-23T00:10:02;12.60;;;8.15;;
15677;SDS011;7939;50.814;6.368;2023-04-23T00:12:31;8.98;;;7.55;;
15677;SDS011;7939;50.814;6.368;2023-04-23T00:14:58;10.70;;;7.75;;
15677;SDS011;7939;50.814;6.368;2023-04-23T00:17:26;10.93;;;7.60;;
15677;SDS011;7939;50.814;6.368;2023-04-23T00:19:53;10.35;;;7.05;;
15677;SDS011;7939;50.814;6.368;2023-04-23T00:22:20;7.57;;;6.30;;
15677;SDS011;7939;50.814;6.368;2023-04-23T00:24:46;7.88;;;6.80;;
15677;SDS011;7939;50.814;6.368;2023-04-23T00:27:13;9.50;;;6.63;;
15677;SDS011;7939;50.814;6.368;2023-04-23T00:29:41;6.88;;;6.18;;
15677;SDS011;7939;50.814;6.368;2023-04-23T00:32:10;6.95;;;6.10;;
15677;SDS011;7939;50.814;6.368;2023-04-23T00:34:36;8.85;;;5.90;;
15677;SDS011;7939;50.814;6.368;2023-04-23T00:37:03;7.53;;;6.10;;
15677;SDS011;7939;50.814;6.368;2023-04-23T00:39:31;7.07;;;6.25;;
15677;SDS011;7939;50.814;6.368;2023-04-23T00:41:57;7.85;;;6.28;;
15677;SDS011;7939;50.814;6.368;2023-04-23T00:44:24;8.93;;;6.85;;
15677;SDS011;7939;50.814;6.368;2023-04-23T00:46:52;9.57;;;6.80;;
15677;SDS011;7939;50.814;6.368;2023-04-23T00:49:20;7.15;;;6.40;;
15677;SDS011;7939;50.814;6.368;2023-04-23T00:51:47;7.15;;;6.38;;
15677;SDS011;7939;50.814;6.368;2023-04-23T00:54:13;7.40;;;5.68;;
15677;SDS011;7939;50.814;6.368;2023-04-23T00:56:40;6.85;;;6.00;;
15677;SDS011;7939;50.814;6.368;2023-04-23T00:59:06;6.25;;;5.60;;
15677;SDS011;7939;50.814;6.368;2023-04-23T01:01:33;6.60;;;5.20;;
15677;SDS011;7939;50.814;6.368;2023-04-23T01:04:01;8.27;;;6.13;;
15677;SDS011;7939;50.814;6.368;2023-04-23T01:06:28;6.00;;;5.40;;
15677;SDS011;7939;50.814;6.368;2023-04-23T01:08:55;6.10;;;4.97;;
15677;SDS011;7939;50.814;6.368;2023-04-23T01:11:22;6.40;;;5.55;;
15677;SDS011;7939;50.814;6.368;2023-04-23T01:13:49;6.97;;;5.28;;
15677;SDS011;7939;50.814;6.368;2023-04-23T01:16:15;7.28;;;4.63;;
15677;SDS011;7939;50.814;6.368;2023-04-23T01:18:42;7.15;;;4.63;;
15677;SDS011;7939;50.814;6.368;2023-04-23T01:21:10;5.70;;;4.45;;
15677;SDS011;7939;50.814;6.368;2023-04-23T01:23:39;4.60;;;4.20;;
15677;SDS011;7939;50.814;6.368;2023-04-23T01:26:05;4.50;;;4.10;;
15677;SDS011;7939;50.814;6.368;2023-04-23T01:28:32;4.60;;;4.18;;
15677;SDS011;7939;50.814;6.368;2023-04-23T01:31:00;4.68;;;4.20;;
15677;SDS011;7939;50.814;6.368;2023-04-23T01:33:28;6.00;;;4.43;;
15677;SDS011;7939;50.814;6.368;2023-04-23T01:35:55;3.58;;;3.28;;
15677;SDS011;7939;50.814;6.368;2023-04-23T01:38:22;4.55;;;3.90;;
15677;SDS011;7939;50.814;6.368;2023-04-23T01:40:51;4.25;;;3.92;;
15677;SDS011;7939;50.814;6.368;2023-04-23T01:43:18;4.68;;;3.80;;
15677;SDS011;7939;50.814;6.368;2023-04-23T01:45:46;5.38;;;4.65;;
15677;SDS011;7939;50.814;6.368;2023-04-23T01:48:13;6.47;;;5.40;;
15677;SDS011;7939;50.814;6.368;2023-04-23T01:50:40;7.22;;;5.30;;
15677;SDS011;7939;50.814;6.368;2023-04-23T01:53:07;6.65;;;5.90;;
15677;SDS011;7939;50.814;6.368;2023-04-23T01:55:35;5.45;;;4.95;;
15677;SDS011;7939;50.814;6.368;2023-04-23T01:58:04;5.93;;;5.10;;
15677;SDS011;7939;50.814;6.368;2023-04-23T02:00:31;7.35;;;5.50;;
15677;SDS011;7939;50.814;6.368;2023-04-23T02:02:58;6.35;;;5.75;;
15677;SDS011;7939;50.814;6.368;2023-04-23T02:05:25;6.45;;;5.18;;
15677;SDS011;7939;50.814;6.368;2023-04-23T02:07:55;8.35;;;6.55;;
15677;SDS011;7939;50.814;6.368;2023-04-23T02:10:22;9.23;;;6.57;;
15677;SDS011;7939;50.814;6.368;2023-04-23T02:12:49;8.20;;;6.10;;
15677;SDS011;7939;50.814;6.368;2023-04-23T02:15:18;10.20;;;6.97;;
15677;SDS011;7939;50.814;6.368;2023-04-23T02:17:45;7.78;;;6.20;;
15677;SDS011;7939;50.814;6.368;2023-04-23T02:20:15;7.63;;;6.00;;
15677;SDS011;7939;50.814;6.368;2023-04-23T02:22:42;5.80;;;5.20;;
15677;SDS011;7939;50.814;6.368;2023-04-23T02:25:08;6.88;;;5.50;;
15677;SDS011;7939;50.814;6.368;2023-04-23T02:27:36;6.88;;;5.45;;
15677;SDS011;7939;50.814;6.368;2023-04-23T02:30:03;6.00;;;5.40;;
15677;SDS011;7939;50.814;6.368;2023-04-23T02:32:33;5.25;;;4.70;;
15677;SDS011;7939;50.814;6.368;2023-04-23T02:35:00;5.60;;;5.00;;
15677;SDS011;7939;50.814;6.368;2023-04-23T02:37:27;6.65;;;5.63;;
15677;SDS011;7939;50.814;6.368;2023-04-23T02:39:54;6.70;;;4.90;;
15677;SDS011;7939;50.814;6.368;2023-04-23T02:42:20;7.70;;;4.90;;
15677;SDS011;7939;50.814;6.368;2023-04-23T02:44:47;5.95;;;4.53;;
15677;SDS011;7939;50.814;6.368;2023-04-23T02:47:14;4.63;;;4.13;;
15677;SDS011;7939;50.814;6.368;2023-04-23T02:49:42;5.32;;;4.80;;
15677;SDS011;7939;50.814;6.368;2023-04-23T02:52:09;6.15;;;4.68;;
15677;SDS011;7939;50.814;6.368;2023-04-23T02:54:35;4.88;;;4.45;;
15677;SDS011;7939;50.814;6.368;2023-04-23T02:57:02;5.63;;;5.00;;
15677;SDS011;7939;50.814;6.368;2023-04-23T02:59:29;5.88;;;4.53;;
15677;SDS011;7939;50.814;6.368;2023-04-23T03:01:56;4.32;;;3.72;;
15677;SDS011;7939;50.814;6.368;2023-04-23T03:04:22;5.95;;;4.90;;
15677;SDS011;7939;50.814;6.368;2023-04-23T03:06:51;7.07;;;4.50;;
15677;SDS011;7939;50.814;6.368;2023-04-23T03:09:17;6.40;;;5.00;;
15677;SDS011;7939;50.814;6.368;2023-04-23T03:11:44;6.82;;;4.80;;
15677;SDS011;7939;50.814;6.368;2023-04-23T03:14:10;6.47;;;4.90;;
15677;SDS011;7939;50.814;6.368;2023-04-23T03:16:37;5.03;;;4.28;;
15677;SDS011;7939;50.814;6.368;2023-04-23T03:19:04;5.32;;;4.70;;
15677;SDS011;7939;50.814;6.368;2023-04-23T03:21:30;5.47;;;4.18;;
15677;SDS011;7939;50.814;6.368;2023-04-23T03:23:58;5.78;;;5.00;;
15677;SDS011;7939;50.814;6.368;2023-04-23T03:26:25;5.38;;;4.13;;
15677;SDS011;7939;50.814;6.368;2023-04-23T03:28:52;5.10;;;4.32;;
15677;SDS011;7939;50.814;6.368;2023-04-23T03:31:19;5.55;;;4.70;;
15677;SDS011;7939;50.814;6.368;2023-04-23T03:33:45;5.28;;;4.15;;
15677;SDS011;7939;50.814;6.368;2023-04-23T03:36:12;4.47;;;3.80;;
15677;SDS011;7939;50.814;6.368;2023-04-23T03:38:39;6.15;;;4.03;;
15677;SDS011;7939;50.814;6.368;2023-04-23T03:41:07;6.38;;;4.30;;
15677;SDS011;7939;50.814;6.368;2023-04-23T03:43:34;5.40;;;4.47;;
15677;SDS011;7939;50.814;6.368;2023-04-23T03:46:01;4.30;;;3.90;;
15677;SDS011;7939;50.814;6.368;2023-04-23T03:48:27;5.28;;;4.15;;
15677;SDS011;7939;50.814;6.368;2023-04-23T03:50:54;4.78;;;4.28;;
15677;SDS011;7939;50.814;6.368;2023-04-23T03:53:21;4.90;;;4.18;;
15677;SDS011;7939;50.814;6.368;2023-04-23T03:55:47;5.68;;;4.70;;
15677;SDS011;7939;50.814;6.368;2023-04-23T03:58:15;5.57;;;4.50;;
15677;SDS011;7939;50.814;6.368;2023-04-23T04:00:42;4.63;;;4.22;;
15677;SDS011;7939;50.814;6.368;2023-04-23T04:03:08;5.78;;;3.65;;
15677;SDS011;7939;50.814;6.368;2023-04-23T04:05:35;4.45;;;4.03;;
15677;SDS011;7939;50.814;6.368;2023-04-23T04:08:01;5.15;;;3.92;;
15677;SDS011;7939;50.814;6.368;2023-04-23T04:10:29;4.90;;;3.90;;
15677;SDS011;7939;50.814;6.368;2023-04-23T04:12:55;4.10;;;3.70;;
15677;SDS011;7939;50.814;6.368;2023-04-23T04:15:23;5.10;;;4.18;;
15677;SDS011;7939;50.814;6.368;2023-04-23T04:17:50;6.22;;;4.07;;
15677;SDS011;7939;50.814;6.368;2023-04-23T04:20:16;5.57;;;3.72;;
15677;SDS011;7939;50.814;6.368;2023-04-23T04:22:43;4.93;;;3.85;;
15677;SDS011;7939;50.814;6.368;2023-04-23T04:25:10;4.30;;;3.75;;
15677;SDS011;7939;50.814;6.368;2023-04-23T04:27:37;4.50;;;3.70;;
15677;SDS011;7939;50.814;6.368;2023-04-23T04:30:06;5.78;;;4.38;;
15677;SDS011;7939;50.814;6.368;2023-04-23T04:32:34;4.78;;;4.18;;
15677;SDS011;7939;50.814;6.368;2023-04-23T04:35:03;4.57;;;4.18;;
15677;SDS011;7939;50.814;6.368;2023-04-23T04:37:30;4.57;;;4.15;;
15677;SDS011;7939;50.814;6.368;2023-04-23T04:39:57;5.93;;;4.13;;
15677;SDS011;7939;50.814;6.368;2023-04-23T04:42:25;6.35;;;4.57;;
15677;SDS011;7939;50.814;6.368;2023-04-23T04:44:52;5.32;;;3.85;;
15677;SDS011;7939;50.814;6.368;2023-04-23T04:47:18;5.40;;;4.20;;
15677;SDS011;7939;50.814;6.368;2023-04-23T04:49:46;4.40;;;4.00;;
15677;SDS011;7939;50.814;6.368;2023-04-23T04:52:13;4.63;;;3.85;;
15677;SDS011;7939;50.814;6.368;2023-04-23T04:54:39;4.65;;;3.70;;
15677;SDS011;7939;50.814;6.368;2023-04-23T04:57:06;4.93;;;3.85;;
15677;SDS011;7939;50.814;6.368;2023-04-23T04:59:32;5.57;;;4.15;;
15677;SDS011;7939;50.814;6.368;2023-04-23T05:01:59;5.45;;;4.20;;
15677;SDS011;7939;50.814;6.368;2023-04-23T05:04:25;4.72;;;4.13;;
15677;SDS011;7939;50.814;6.368;2023-04-23T05:06:53;5.32;;;4.35;;
15677;SDS011;7939;50.814;6.368;2023-04-23T05:09:20;3.63;;;3.33;;
15677;SDS011;7939;50.814;6.368;2023-04-23T05:11:47;6.85;;;4.43;;
15677;SDS011;7939;50.814;6.368;2023-04-23T05:14:14;5.15;;;3.90;;
15677;SDS011;7939;50.814;6.368;2023-04-23T05:16:41;6.38;;;4.07;;
15677;SDS011;7939;50.814;6.368;2023-04-23T05:19:07;5.60;;;3.65;;
15677;SDS011;7939;50.814;6.368;2023-04-23T05:21:34;4.47;;;3.80;;
15677;SDS011;7939;50.814;6.368;2023-04-23T05:24:02;4.32;;;3.92;;
15677;SDS011;7939;50.814;6.368;2023-04-23T05:26:29;4.40;;;3.60;;
15677;SDS011;7939;50.814;6.368;2023-04-23T05:28:55;6.38;;;4.25;;
15677;SDS011;7939;50.814;6.368;2023-04-23T05:31:22;5.47;;;4.28;;
15677;SDS011;7939;50.814;6.368;2023-04-23T05:33:48;6.20;;;3.53;;
15677;SDS011;7939;50.814;6.368;2023-04-23T05:36:15;5.20;;;3.92;;
15677;SDS011;7939;50.814;6.368;2023-04-23T05:38:41;4.25;;;3.47;;
15677;SDS011;7939;50.814;6.368;2023-04-23T05:41:09;7.45;;;4.13;;
15677;SDS011;7939;50.814;6.368;2023-04-23T05:43:36;4.20;;;3.70;;
15677;SDS011;7939;50.814;6.368;2023-04-23T05:46:02;5.13;;;3.70;;
15677;SDS011;7939;50.814;6.368;2023-04-23T05:48:31;3.75;;;3.45;;
15677;SDS011;7939;50.814;6.368;2023-04-23T05:50:57;6.97;;;3.80;;
15677;SDS011;7939;50.814;6.368;2023-04-23T05:53:24;5.25;;;3.85;;
15677;SDS011;7939;50.814;6.368;2023-04-23T05:55:51;4.78;;;3.35;;
15677;SDS011;7939;50.814;6.368;2023-04-23T05:58:19;6.20;;;3.58;;
15677;SDS011;7939;50.814;6.368;2023-04-23T06:00:46;4.78;;;3.40;;
15677;SDS011;7939;50.814;6.368;2023-04-23T06:03:13;4.60;;;3.85;;
15677;SDS011;7939;50.814;6.368;2023-04-23T06:05:40;3.75;;;3.22;;
15677;SDS011;7939;50.814;6.368;2023-04-23T06:08:07;3.95;;;3.42;;
15677;SDS011;7939;50.814;6.368;2023-04-23T06:10:33;4.97;;;3.95;;
15677;SDS011;7939;50.814;6.368;2023-04-23T06:13:00;4.20;;;3.80;;
15677;SDS011;7939;50.814;6.368;2023-04-23T06:15:28;3.80;;;3.50;;
15677;SDS011;7939;50.814;6.368;2023-04-23T06:17:54;5.38;;;3.92;;
15677;SDS011;7939;50.814;6.368;2023-04-23T06:20:21;4.97;;;3.70;;
15677;SDS011;7939;50.814;6.368;2023-04-23T06:22:47;6.80;;;3.85;;
15677;SDS011;7939;50.814;6.368;2023-04-23T06:25:14;6.35;;;4.15;;
15677;SDS011;7939;50.814;6.368;2023-04-23T06:27:41;4.53;;;3.70;;
15677;SDS011;7939;50.814;6.368;2023-04-23T06:30:08;4.45;;;4.00;;
15677;SDS011;7939;50.814;6.368;2023-04-23T06:32:36;3.88;;;3.55;;
15677;SDS011;7939;50.814;6.368;2023-04-23T06:35:03;6.03;;;4.90;;
15677;SDS011;7939;50.814;6.368;2023-04-23T06:37:30;5.82;;;3.65;;
15677;SDS011;7939;50.814;6.368;2023-04-23T06:39:57;6.50;;;3.95;;
15677;SDS011;7939;50.814;6.368;2023-04-23T06:42:23;4.65;;;3.83;;
15677;SDS011;7939;50.814;6.368;2023-04-23T06:44:50;4.13;;;3.72;;
15677;SDS011;7939;50.814;6.368;2023-04-23T06:47:18;4.75;;;3.95;;
15677;SDS011;7939;50.814;6.368;2023-04-23T06:49:46;3.90;;;3.60;;
15677;SDS011;7939;50.814;6.368;2023-04-23T06:52:12;3.95;;;3.60;;
15677;SDS011;7939;50.814;6.368;2023-04-23T06:54:39;4.47;;;3.90;;
15677;SDS011;7939;50.814;6.368;2023-04-23T06:57:05;6.72;;;4.22;;
15677;SDS011;7939;50.814;6.368;2023-04-23T06:59:32;6.00;;;4.03;;
15677;SDS011;7939;50.814;6.368;2023-04-23T07:01:58;5.28;;;3.33;;
15677;SDS011;7939;50.814;6.368;2023-04-23T07:04:25;5.40;;;4.07;;
15677;SDS011;7939;50.814;6.368;2023-04-23T07:06:53;4.18;;;3.45;;
15677;SDS011;7939;50.814;6.368;2023-04-23T07:09:20;3.90;;;3.53;;
15677;SDS011;7939;50.814;6.368;2023-04-23T07:11:47;3.50;;;3.20;;
15677;SDS011;7939;50.814;6.368;2023-04-23T07:14:13;6.38;;;4.03;;
15677;SDS011;7939;50.814;6.368;2023-04-23T07:16:40;4.93;;;3.40;;
15677;SDS011;7939;50.814;6.368;2023-04-23T07:19:06;4.38;;;3.05;;
15677;SDS011;7939;50.814;6.368;2023-04-23T07:21:33;3.60;;;3.28;;
15677;SDS011;7939;50.814;6.368;2023-04-23T07:24:01;6.45;;;3.30;;
15677;SDS011;7939;50.814;6.368;2023-04-23T07:26:30;4.60;;;3.22;;
15677;SDS011;7939;50.814;6.368;2023-04-23T07:28:57;4.20;;;3.20;;
15677;SDS011;7939;50.814;6.368;2023-04-23T07:31:25;5.25;;;3.55;;
15677;SDS011;7939;50.814;6.368;2023-04-23T07:33:52;6.43;;;3.25;;
15677;SDS011;7939;50.814;6.368;2023-04-23T07:36:19;3.95;;;3.47;;
15677;SDS011;7939;50.814;6.368;2023-04-23T07:38:45;4.68;;;2.80;;
15677;SDS011;7939;50.814;6.368;2023-04-23T07:41:13;5.38;;;2.72;;
15677;SDS011;7939;50.814;6.368;2023-04-23T07:43:40;3.45;;;2.72;;
15677;SDS011;7939;50.814;6.368;2023-04-23T07:46:07;3.65;;;2.55;;
15677;SDS011;7939;50.814;6.368;2023-04-23T07:48:33;6.80;;;2.85;;
15677;SDS011;7939;50.814;6.368;2023-04-23T07:51:00;2.60;;;2.10;;
15677;SDS011;7939;50.814;6.368;2023-04-23T07:53:27;2.35;;;2.13;;
15677;SDS011;7939;50.814;6.368;2023-04-23T07:55:54;4.60;;;2.60;;
15677;SDS011;7939;50.814;6.368;2023-04-23T07:58:23;4.25;;;2.20;;
15677;SDS011;7939;50.814;6.368;2023-04-23T08:00:50;3.97;;;2.15;;
15677;SDS011;7939;50.814;6.368;2023-04-23T08:03:17;4.20;;;2.08;;
15677;SDS011;7939;50.814;6.368;2023-04-23T08:05:43;2.03;;;1.88;;
15677;SDS011;7939;50.814;6.368;2023-04-23T08:08:11;3.63;;;1.95;;
15677;SDS011;7939;50.814;6.368;2023-04-23T08:10:38;3.25;;;2.08;;
15677;SDS011;7939;50.814;6.368;2023-04-23T08:13:05;3.03;;;2.10;;
15677;SDS011;7939;50.814;6.368;2023-04-23T08:15:33;3.45;;;1.75;;
15677;SDS011;7939;50.814;6.368;2023-04-23T08:18:00;3.58;;;2.20;;
15677;SDS011;7939;50.814;6.368;2023-04-23T08:20:27;4.57;;;1.90;;
15677;SDS011;7939;50.814;6.368;2023-04-23T08:22:56;1.75;;;1.65;;
15677;SDS011;7939;50.814;6.368;2023-04-23T08:25:23;6.35;;;1.70;;
15677;SDS011;7939;50.814;6.368;2023-04-23T08:27:49;1.60;;;1.48;;
15677;SDS011;7939;50.814;6.368;2023-04-23T08:30:16;2.38;;;1.63;;
15677;SDS011;7939;50.814;6.368;2023-04-23T08:32:45;2.35;;;1.73;;
15677;SDS011;7939;50.814;6.368;2023-04-23T08:35:15;4.30;;;1.85;;
15677;SDS011;7939;50.814;6.368;2023-04-23T08:37:41;2.65;;;2.10;;
15677;SDS011;7939;50.814;6.368;2023-04-23T08:40:08;2.97;;;1.60;;
15677;SDS011;7939;50.814;6.368;2023-04-23T08:42:36;1.75;;;1.50;;
15677;SDS011;7939;50.814;6.368;2023-04-23T08:45:07;2.35;;;1.45;;
15677;SDS011;7939;50.814;6.368;2023-04-23T08:47:34;4.25;;;1.50;;
15677;SDS011;7939;50.814;6.368;2023-04-23T08:50:02;2.28;;;1.58;;
15677;SDS011;7939;50.814;6.368;2023-04-23T08:52:32;2.88;;;1.60;;
15677;SDS011;7939;50.814;6.368;2023-04-23T08:55:00;1.50;;;1.40;;
15677;SDS011;7939;50.814;6.368;2023-04-23T08:57:29;3.20;;;1.73;;
15677;SDS011;7939;50.814;6.368;2023-04-23T08:59:56;3.90;;;1.48;;
15677;SDS011;7939;50.814;6.368;2023-04-23T09:02:24;3.40;;;1.50;;
15677;SDS011;7939;50.814;6.368;2023-04-23T09:04:51;2.10;;;1.13;;
15677;SDS011;7939;50.814;6.368;2023-04-23T09:07:20;3.30;;;1.40;;
15677;SDS011;7939;50.814;6.368;2023-04-23T09:09:46;2.20;;;1.30;;
15677;SDS011;7939;50.814;6.368;2023-04-23T09:12:13;1.63;;;1.40;;
15677;SDS011;7939;50.814;6.368;2023-04-23T09:14:40;2.88;;;1.50;;
15677;SDS011;7939;50.814;6.368;2023-04-23T09:17:07;2.15;;;1.70;;
15677;SDS011;7939;50.814;6.368;2023-04-23T09:19:34;3.22;;;1.45;;
15677;SDS011;7939;50.814;6.368;2023-04-23T09:22:03;2.78;;;1.45;;
15677;SDS011;7939;50.814;6.368;2023-04-23T09:24:31;2.25;;;1.20;;
15677;SDS011;7939;50.814;6.368;2023-04-23T09:26:59;4.55;;;1.30;;
15677;SDS011;7939;50.814;6.368;2023-04-23T09:29:26;2.75;;;1.50;;
15677;SDS011;7939;50.814;6.368;2023-04-23T09:31:53;2.17;;;1.52;;
15677;SDS011;7939;50.814;6.368;2023-04-23T09:34:21;5.45;;;1.58;;
15677;SDS011;7939;50.814;6.368;2023-04-23T09:36:50;2.17;;;1.73;;
15677;SDS011;7939;50.814;6.368;2023-04-23T09:39:18;2.83;;;1.48;;
15677;SDS011;7939;50.814;6.368;2023-04-23T09:41:48;1.48;;;1.38;;
15677;SDS011;7939;50.814;6.368;2023-04-23T09:44:16;6.05;;;1.40;;
15677;SDS011;7939;50.814;6.368;2023-04-23T09:46:44;1.38;;;1.27;;
15677;SDS011;7939;50.814;6.368;2023-04-23T09:49:11;2.75;;;1.35;;
15677;SDS011;7939;50.814;6.368;2023-04-23T09:51:41;2.50;;;1.20;;
15677;SDS011;7939;50.814;6.368;2023-04-23T09:54:12;3.45;;;1.52;;
15677;SDS011;7939;50.814;6.368;2023-04-23T09:56:39;1.70;;;1.40;;
15677;SDS011;7939;50.814;6.368;2023-04-23T09:59:20;2.35;;;1.55;;
15677;SDS011;7939;50.814;6.368;2023-04-23T10:01:48;2.20;;;1.20;;
15677;SDS011;7939;50.814;6.368;2023-04-23T10:04:16;2.30;;;1.40;;
15677;SDS011;7939;50.814;6.368;2023-04-23T10:06:44;5.05;;;1.63;;
15677;SDS011;7939;50.814;6.368;2023-04-23T10:09:11;1.33;;;1.02;;
15677;SDS011;7939;50.814;6.368;2023-04-23T10:11:38;2.38;;;1.42;;
15677;SDS011;7939;50.814;6.368;2023-04-23T10:14:06;2.40;;;1.20;;
15677;SDS011;7939;50.814;6.368;2023-04-23T10:16:35;3.35;;;1.30;;
15677;SDS011;7939;50.814;6.368;2023-04-23T10:19:03;2.10;;;1.08;;
15677;SDS011;7939;50.814;6.368;2023-04-23T10:21:33;1.48;;;1.10;;
15677;SDS011;7939;50.814;6.368;2023-04-23T10:23:59;3.42;;;1.08;;
15677;SDS011;7939;50.814;6.368;2023-04-23T10:26:27;2.42;;;1.27;;
15677;SDS011;7939;50.814;6.368;2023-04-23T10:28:57;4.25;;;1.70;;
15677;SDS011;7939;50.814;6.368;2023-04-23T10:31:25;2.60;;;1.30;;
15677;SDS011;7939;50.814;6.368;2023-04-23T10:33:54;3.90;;;1.30;;
15677;SDS011;7939;50.814;6.368;2023-04-23T10:36:22;4.20;;;1.30;;
15677;SDS011;7939;50.814;6.368;2023-04-23T10:38:49;4.05;;;1.48;;
15677;SDS011;7939;50.814;6.368;2023-04-23T10:41:18;2.88;;;1.30;;
15677;SDS011;7939;50.814;6.368;2023-04-23T10:43:52;3.72;;;1.35;;
15677;SDS011;7939;50.814;6.368;2023-04-23T10:46:26;2.30;;;1.23;;
15677;SDS011;7939;50.814;6.368;2023-04-23T10:49:05;2.78;;;1.33;;
15677;SDS011;7939;50.814;6.368;2023-04-23T10:51:33;2.60;;;1.67;;
15677;SDS011;7939;50.814;6.368;2023-04-23T10:54:03;2.53;;;1.02;;
15677;SDS011;7939;50.814;6.368;2023-04-23T10:56:31;1.38;;;1.10;;
15677;SDS011;7939;50.814;6.368;2023-04-23T10:58:58;2.55;;;1.20;;
15677;SDS011;7939;50.814;6.368;2023-04-23T11:01:25;2.13;;;1.20;;
15677;SDS011;7939;50.814;6.368;2023-04-23T11:03:54;2.00;;;1.25;;
15677;SDS011;7939;50.814;6.368;2023-04-23T11:09:37;3.58;;;1.10;;
15677;SDS011;7939;50.814;6.368;2023-04-23T11:12:05;3.33;;;1.60;;
15677;SDS011;7939;50.814;6.368;2023-04-23T11:14:35;2.55;;;1.30;;
15677;SDS011;7939;50.814;6.368;2023-04-23T11:17:03;4.15;;;1.13;;
15677;SDS011;7939;50.814;6.368;2023-04-23T11:19:33;1.83;;;1.17;;
15677;SDS011;7939;50.814;6.368;2023-04-23T11:22:02;4.30;;;1.50;;
15677;SDS011;7939;50.814;6.368;2023-04-23T11:24:30;2.00;;;1.25;;
15677;SDS011;7939;50.814;6.368;2023-04-23T11:27:03;1.77;;;1.30;;
15677;SDS011;7939;50.814;6.368;2023-04-23T11:29:31;3.30;;;1.20;;
15677;SDS011;7939;50.814;6.368;2023-04-23T11:31:58;3.25;;;1.08;;
15677;SDS011;7939;50.814;6.368;2023-04-23T11:34:25;3.35;;;1.48;;
15677;SDS011;7939;50.814;6.368;2023-04-23T11:36:52;4.43;;;1.63;;
15677;SDS011;7939;50.814;6.368;2023-04-23T11:39:20;3.22;;;1.30;;
15677;SDS011;7939;50.814;6.368;2023-04-23T11:41:48;1.75;;;1.38;;
15677;SDS011;7939;50.814;6.368;2023-04-23T11:44:17;6.25;;;2.00;;
15677;SDS011;7939;50.814;6.368;2023-04-23T11:46:45;2.88;;;1.40;;
15677;SDS011;7939;50.814;6.368;2023-04-23T11:49:12;3.55;;;1.20;;
15677;SDS011;7939;50.814;6.368;2023-04-23T11:51:40;3.08;;;1.40;;
15677;SDS011;7939;50.814;6.368;2023-04-23T11:54:09;4.18;;;0.90;;
15677;SDS011;7939;50.814;6.368;2023-04-23T11:56:36;2.38;;;1.40;;
15677;SDS011;7939;50.814;6.368;2023-04-23T11:59:03;2.20;;;1.15;;
15677;SDS011;7939;50.814;6.368;2023-04-23T12:01:42;4.18;;;1.17;;
15677;SDS011;7939;50.814;6.368;2023-04-23T12:04:13;1.77;;;0.90;;
15677;SDS011;7939;50.814;6.368;2023-04-23T12:06:41;1.92;;;0.85;;
15677;SDS011;7939;50.814;6.368;2023-04-23T12:09:10;2.20;;;1.10;;
15677;SDS011;7939;50.814;6.368;2023-04-23T12:11:37;5.60;;;1.30;;
15677;SDS011;7939;50.814;6.368;2023-04-23T12:14:04;2.90;;;1.67;;
15677;SDS011;7939;50.814;6.368;2023-04-23T12:16:33;3.83;;;2.00;;
15677;SDS011;7939;50.814;6.368;2023-04-23T12:19:07;3.78;;;2.30;;
15677;SDS011;7939;50.814;6.368;2023-04-23T12:21:34;2.70;;;1.75;;
15677;SDS011;7939;50.814;6.368;2023-04-23T12:24:12;4.10;;;1.90;;
15677;SDS011;7939;50.814;6.368;2023-04-23T12:26:39;4.47;;;2.25;;
15677;SDS011;7939;50.814;6.368;2023-04-23T12:29:07;5.45;;;1.80;;
15677;SDS011;7939;50.814;6.368;2023-04-23T12:31:35;3.22;;;1.52;;
15677;SDS011;7939;50.814;6.368;2023-04-23T12:34:04;3.28;;;1.45;;
15677;SDS011;7939;50.814;6.368;2023-04-23T12:36:33;2.35;;;1.27;;
15677;SDS011;7939;50.814;6.368;2023-04-23T12:39:19;4.60;;;1.52;;
15677;SDS011;7939;50.814;6.368;2023-04-23T12:41:48;2.85;;;1.27;;
15677;SDS011;7939;50.814;6.368;2023-04-23T12:44:16;4.35;;;1.20;;
15677;SDS011;7939;50.814;6.368;2023-04-23T12:46:42;3.38;;;1.02;;
15677;SDS011;7939;50.814;6.368;2023-04-23T12:49:09;1.55;;;1.10;;
15677;SDS011;7939;50.814;6.368;2023-04-23T12:51:37;2.33;;;1.27;;
15677;SDS011;7939;50.814;6.368;2023-04-23T12:54:04;3.53;;;1.10;;
15677;SDS011;7939;50.814;6.368;2023-04-23T12:56:31;4.32;;;1.20;;
15677;SDS011;7939;50.814;6.368;2023-04-23T12:59:00;2.72;;;1.20;;
15677;SDS011;7939;50.814;6.368;2023-04-23T13:01:29;2.05;;;0.95;;
15677;SDS011;7939;50.814;6.368;2023-04-23T13:03:56;1.20;;;1.10;;
15677;SDS011;7939;50.814;6.368;2023-04-23T13:06:23;2.63;;;1.63;;
15677;SDS011;7939;50.814;6.368;2023-04-23T13:08:52;3.28;;;1.30;;
15677;SDS011;7939;50.814;6.368;2023-04-23T13:11:19;0.93;;;0.93;;
15677;SDS011;7939;50.814;6.368;2023-04-23T13:13:46;1.85;;;0.93;;
15677;SDS011;7939;50.814;6.368;2023-04-23T13:16:13;2.92;;;1.17;;
15677;SDS011;7939;50.814;6.368;2023-04-23T13:18:40;1.60;;;1.20;;
15677;SDS011;7939;50.814;6.368;2023-04-23T13:21:06;2.65;;;1.08;;
15677;SDS011;7939;50.814;6.368;2023-04-23T13:23:34;2.30;;;1.13;;
15677;SDS011;7939;50.814;6.368;2023-04-23T13:26:03;1.85;;;1.35;;
15677;SDS011;7939;50.814;6.368;2023-04-23T13:28:30;3.63;;;1.48;;
15677;SDS011;7939;50.814;6.368;2023-04-23T13:30:57;3.17;;;1.33;;
15677;SDS011;7939;50.814;6.368;2023-04-23T13:33:23;2.05;;;1.33;;
15677;SDS011;7939;50.814;6.368;2023-04-23T13:35:50;1.38;;;1.27;;
15677;SDS011;7939;50.814;6.368;2023-04-23T13:38:18;1.42;;;1.23;;
15677;SDS011;7939;50.814;6.368;2023-04-23T13:40:45;4.18;;;1.40;;
15677;SDS011;7939;50.814;6.368;2023-04-23T13:43:13;1.75;;;1.20;;
15677;SDS011;7939;50.814;6.368;2023-04-23T13:45:39;5.05;;;1.15;;
15677;SDS011;7939;50.814;6.368;2023-04-23T13:48:07;2.92;;;1.13;;
15677;SDS011;7939;50.814;6.368;2023-04-23T13:50:34;1.63;;;1.30;;
15677;SDS011;7939;50.814;6.368;2023-04-23T13:53:00;2.17;;;1.38;;
15677;SDS011;7939;50.814;6.368;2023-04-23T13:55:27;3.70;;;1.50;;
15677;SDS011;7939;50.814;6.368;2023-04-23T13:57:53;3.10;;;1.55;;
15677;SDS011;7939;50.814;6.368;2023-04-23T14:00:23;1.63;;;1.13;;
15677;SDS011;7939;50.814;6.368;2023-04-23T14:02:52;1.90;;;1.00;;
15677;SDS011;7939;50.814;6.368;2023-04-23T14:05:18;0.95;;;0.93;;
15677;SDS011;7939;50.814;6.368;2023-04-23T14:07:45;1.27;;;1.00;;
15677;SDS011;7939;50.814;6.368;2023-04-23T14:10:12;1.58;;;1.20;;
15677;SDS011;7939;50.814;6.368;2023-04-23T14:12:39;2.25;;;1.08;;
15677;SDS011;7939;50.814;6.368;2023-04-23T14:15:07;2.35;;;1.10;;
15677;SDS011;7939;50.814;6.368;2023-04-23T14:17:36;1.20;;;0.90;;
15677;SDS011;7939;50.814;6.368;2023-04-23T14:20:05;1.95;;;1.20;;
15677;SDS011;7939;50.814;6.368;2023-04-23T14:22:32;1.40;;;1.05;;
15677;SDS011;7939;50.814;6.368;2023-04-23T14:25:00;1.52;;;1.20;;
15677;SDS011;7939;50.814;6.368;2023-04-23T14:27:30;1.70;;;1.48;;
15677;SDS011;7939;50.814;6.368;2023-04-23T14:29:57;3.63;;;1.60;;
15677;SDS011;7939;50.814;6.368;2023-04-23T14:32:29;3.10;;;1.52;;
15677;SDS011;7939;50.814;6.368;2023-04-23T14:34:57;2.20;;;1.10;;
15677;SDS011;7939;50.814;6.368;2023-04-23T14:37:24;1.45;;;1.35;;
15677;SDS011;7939;50.814;6.368;2023-04-23T14:39:50;3.47;;;1.33;;
15677;SDS011;7939;50.814;6.368;2023-04-23T14:42:17;2.85;;;1.80;;
15677;SDS011;7939;50.814;6.368;2023-04-23T14:44:44;1.58;;;1.25;;
15677;SDS011;7939;50.814;6.368;2023-04-23T14:47:11;2.83;;;1.52;;
15677;SDS011;7939;50.814;6.368;2023-04-23T14:49:38;1.60;;;1.50;;
15677;SDS011;7939;50.814;6.368;2023-04-23T14:52:07;3.90;;;1.48;;
15677;SDS011;7939;50.814;6.368;2023-04-23T14:54:33;1.98;;;1.38;;
15677;SDS011;7939;50.814;6.368;2023-04-23T14:57:00;1.45;;;1.30;;
15677;SDS011;7939;50.814;6.368;2023-04-23T14:59:27;1.35;;;1.15;;
15677;SDS011;7939;50.814;6.368;2023-04-23T15:01:53;1.92;;;1.30;;
15677;SDS011;7939;50.814;6.368;2023-04-23T15:04:20;3.67;;;1.40;;